Time;durP1;ratioP1;P1;durP2;ratioP2;P2;SDS_P1;SDS_P2;PMS_P1;PMS_P2;Temp;Humidity;BMP_temperature;BMP_pressure;BME280_temperature;BME280_humidity;BME280_pressure;Samples;Min_cycle;Max_cycle;Signal;HPM_P1;HPM_P2
2023/09/03 00:10:53;;;;;;;;;;;;;;;18.42;93.34;100946.48;668493;1263;125666;-76
2023/09/03 00:25:56;;;;;;;;;;;;;;;18.07;94.40;100958.09;668594;1263;126492;-76
2023/09/03 00:41:00;;;;;;;;;;;;;;;18.04;94.29;100964.77;668448;1267;125830;-77
2023/09/03 00:56:04;;;;;;;;;;;;;;;17.82;94.28;100964.52;668489;1263;125290;-77
2023/09/03 01:11:17;;;;;;;;;;;;;;;17.66;94.32;100964.05;668685;1262;125305;-75
2023/09/03 01:26:20;;;;;;;;;;;;;;;17.56;93.61;100958.80;668626;1264;126421;-75
2023/09/03 01:41:24;;;;;;;;;;;;;;;17.22;93.43;100948.09;668328;1263;125277;-76
2023/09/03 01:56:29;;;;;;;;;;;;;;;17.05;93.41;100938.07;668516;1273;125303;-76
2023/09/03 02:11:32;;;;;;;;;;;;;;;16.64;95.30;100916.81;668507;1261;125019;-76
2023/09/03 02:26:39;;;;;;;;;;;;;;;16.42;95.63;100902.96;668663;1264;125425;-77
2023/09/03 02:41:43;;;;;;;;;;;;;;;16.34;95.54;100916.55;668652;1264;124911;-75
2023/09/03 02:56:48;;;;;;;;;;;;;;;16.20;95.35;100930.09;668967;1264;125661;-76
2023/09/03 03:11:52;;;;;;;;;;;;;;;15.92;96.25;100943.25;668608;1263;128518;-76
2023/09/03 03:26:55;;;;;;;;;;;;;;;15.91;96.59;100954.69;668737;1263;125606;-76
2023/09/03 03:42:00;;;;;;;;;;;;;;;15.99;96.68;100950.02;669183;1273;125293;-76
2023/09/03 03:57:05;;;;;;;;;;;;;;;15.89;96.04;100952.92;668425;1261;126557;-76
2023/09/03 04:12:08;;;;;;;;;;;;;;;15.77;95.16;100958.76;668424;1260;128675;-78
2023/09/03 04:27:13;;;;;;;;;;;;;;;15.79;94.29;100959.91;668647;1263;125804;-76
2023/09/03 04:42:17;;;;;;;;;;;;;;;15.69;94.90;100960.23;669114;1266;125423;-77
2023/09/03 04:57:21;;;;;;;;;;;;;;;15.86;94.13;100968.63;668041;1262;125422;-77
2023/09/03 05:12:24;;;;;;;;;;;;;;;15.90;95.94;100975.61;668912;1273;126348;-78
2023/09/03 05:27:30;;;;;;;;;;;;;;;16.15;97.54;100988.27;674942;1259;124914;-76
2023/09/03 05:42:35;;;;;;;;;;;;;;;16.63;97.53;100993.48;668277;1275;125829;-77
2023/09/03 05:57:40;;;;;;;;;;;;;;;20.63;92.80;100999.29;668949;1262;126113;-81
2023/09/03 06:12:44;;;;;;;;;;;;;;;24.82;79.30;101015.77;668881;1262;125224;-78
2023/09/03 06:27:48;;;;;;;;;;;;;;;27.12;71.56;101021.88;668931;1262;125166;-78
2023/09/03 06:42:52;;;;;;;;;;;;;;;28.02;64.29;101041.90;668673;1259;125027;-77
2023/09/03 06:57:55;;;;;;;;;;;;;;;28.29;63.43;101066.61;668703;1262;124797;-77
2023/09/03 07:12:58;;;;;;;;;;;;;;;29.42;60.83;101059.57;670405;1259;124868;-78
2023/09/03 07:28:02;;;;;;;;;;;;;;;30.57;56.38;101057.80;670218;1262;124964;-76
2023/09/03 07:43:05;;;;;;;;;;;;;;;31.42;56.11;101067.46;670486;1262;126008;-77
2023/09/03 07:58:09;;;;;;;;;;;;;;;31.66;53.60;101066.95;671360;1257;124772;-77
2023/09/03 08:13:12;;;;;;;;;;;;;;;32.32;52.30;101085.91;669096;1262;124660;-77
2023/09/03 08:28:15;;;;;;;;;;;;;;;32.48;50.47;101088.14;668503;1262;124945;-76
2023/09/03 08:43:20;;;;;;;;;;;;;;;32.82;50.24;101093.38;668785;1263;124731;-76
2023/09/03 08:58:26;;;;;;;;;;;;;;;32.78;49.28;101095.55;673000;1260;125184;-77
2023/09/03 09:13:34;;;;;;;;;;;;;;;31.05;50.05;101093.34;669232;1260;124492;-74
2023/09/03 09:28:43;;;;;;;;;;;;;;;30.66;51.20;101094.95;668687;1263;124932;-79
2023/09/03 09:43:47;;;;;;;;;;;;;;;31.59;49.42;101100.72;670742;1263;124907;-76
2023/09/03 09:58:50;;;;;;;;;;;;;;;31.52;48.48;101083.41;668762;1263;124645;-77
2023/09/03 10:13:55;;;;;;;;;;;;;;;31.23;47.54;101077.67;668544;1263;188247;-76
2023/09/03 10:29:03;;;;;;;;;;;;;;;31.22;47.46;101080.29;670108;1263;124934;-79
2023/09/03 10:44:14;;;;;;;;;;;;;;;31.01;47.30;101081.83;671950;1261;124606;-79
2023/09/03 10:59:17;;;;;;;;;;;;;;;31.25;46.82;101080.42;669271;1273;125056;-76
2023/09/03 11:14:28;;;;;;;;;;;;;;;31.21;47.42;101083.55;669222;1262;124979;-77
2023/09/03 11:29:32;;;;;;;;;;;;;;;30.66;47.83;101082.42;668764;1262;124456;-77
2023/09/03 11:44:36;;;;;;;;;;;;;;;30.93;48.47;101088.27;668783;1263;124548;-77
2023/09/03 11:59:40;;;;;;;;;;;;;;;30.10;47.76;101073.21;669011;1262;125003;-79
2023/09/03 12:14:44;;;;;;;;;;;;;;;28.93;48.98;101057.90;669508;1263;125325;-77
2023/09/03 12:29:53;;;;;;;;;;;;;;;29.74;48.62;101056.10;669344;1263;125021;-77
2023/09/03 12:44:57;;;;;;;;;;;;;;;29.31;48.80;101062.72;668991;1261;125591;-76
2023/09/03 13:00:04;;;;;;;;;;;;;;;28.77;50.55;101061.95;668901;1267;124823;-76
2023/09/03 13:15:08;;;;;;;;;;;;;;;28.27;51.91;101070.16;668838;1263;126478;-76
2023/09/03 13:30:12;;;;;;;;;;;;;;;28.34;52.88;101071.13;668967;1263;126204;-77
2023/09/03 13:45:15;;;;;;;;;;;;;;;28.41;52.37;101078.63;668836;1264;125015;-77
2023/09/03 14:00:19;;;;;;;;;;;;;;;28.01;53.00;101070.27;671375;1271;124788;-77
2023/09/03 14:15:23;;;;;;;;;;;;;;;27.63;53.95;101064.45;668690;1264;126155;-77
2023/09/03 14:30:27;;;;;;;;;;;;;;;27.19;53.88;101057.65;668855;1263;125580;-77
2023/09/03 14:45:31;;;;;;;;;;;;;;;26.63;55.53;101061.80;669360;1263;126171;-77
2023/09/03 15:00:35;;;;;;;;;;;;;;;26.40;56.86;101054.55;669213;1264;125306;-76
2023/09/03 15:15:39;;;;;;;;;;;;;;;25.85;58.33;101054.83;669088;1262;124895;-78
2023/09/03 15:30:44;;;;;;;;;;;;;;;25.87;60.07;101051.38;669032;1263;125160;-79
2023/09/03 15:45:48;;;;;;;;;;;;;;;26.03;60.69;101060.02;669404;1272;125607;-77
2023/09/03 16:00:52;;;;;;;;;;;;;;;25.82;60.97;101057.58;669461;1262;124830;-75
2023/09/03 16:15:55;;;;;;;;;;;;;;;25.56;61.87;101068.68;673908;1263;124489;-76
2023/09/03 16:30:59;;;;;;;;;;;;;;;24.90;63.14;101091.23;669308;1266;124917;-75
2023/09/03 16:46:03;;;;;;;;;;;;;;;24.36;64.21;101105.36;669212;1271;125296;-76
2023/09/03 17:01:06;;;;;;;;;;;;;;;24.10;64.68;101118.26;669344;1263;124982;-77
2023/09/03 17:16:14;;;;;;;;;;;;;;;23.66;65.16;101136.85;669271;1271;124974;-77
2023/09/03 17:31:17;;;;;;;;;;;;;;;23.31;66.25;101147.59;668947;1263;124879;-76
2023/09/03 17:46:20;;;;;;;;;;;;;;;23.10;66.86;101170.06;668867;1276;125144;-76
2023/09/03 18:01:24;;;;;;;;;;;;;;;22.85;69.03;101190.75;668710;1263;124679;-77
2023/09/03 18:16:32;;;;;;;;;;;;;;;22.66;72.40;101191.97;668436;1263;125564;-76
2023/09/03 18:31:35;;;;;;;;;;;;;;;22.55;75.18;101214.83;668828;1263;125239;-76
2023/09/03 18:46:39;;;;;;;;;;;;;;;22.30;75.48;101222.52;668556;1273;126298;-77
2023/09/03 19:01:46;;;;;;;;;;;;;;;22.16;75.88;101226.16;668758;1271;126303;-76
2023/09/03 19:16:53;;;;;;;;;;;;;;;21.84;76.82;101223.56;668634;1260;125922;-74
2023/09/03 19:31:57;;;;;;;;;;;;;;;21.74;76.94;101228.77;668931;1259;126234;-76
2023/09/03 19:47:01;;;;;;;;;;;;;;;21.45;78.42;101232.91;668807;1263;125934;-76
2023/09/03 20:02:07;;;;;;;;;;;;;;;21.27;78.44;101258.47;668724;1263;126543;-76
2023/09/03 20:17:11;;;;;;;;;;;;;;;21.36;78.17;101279.72;668521;1260;125419;-76
2023/09/03 20:32:15;;;;;;;;;;;;;;;21.40;77.93;101301.96;668961;1263;126788;-76
2023/09/03 20:47:18;;;;;;;;;;;;;;;21.30;78.17;101299.79;668595;1260;125854;-77
2023/09/03 21:02:22;;;;;;;;;;;;;;;21.23;78.25;101301.33;668454;1264;125652;-76
2023/09/03 21:17:26;;;;;;;;;;;;;;;21.22;78.37;101317.07;669629;1264;125576;-76
2023/09/03 21:32:29;;;;;;;;;;;;;;;21.22;79.05;101314.11;674607;1260;125454;-76
2023/09/03 21:47:32;;;;;;;;;;;;;;;21.01;78.12;101305.88;670812;1263;126159;-76
2023/09/03 22:02:36;;;;;;;;;;;;;;;20.87;76.03;101292.14;672338;1276;126120;-76
2023/09/03 22:17:39;;;;;;;;;;;;;;;20.69;75.73;101308.05;672426;1273;163212;-76
2023/09/03 22:32:42;;;;;;;;;;;;;;;20.35;76.68;101316.05;668606;1263;125688;-75
2023/09/03 22:47:46;;;;;;;;;;;;;;;20.37;76.43;101326.10;668642;1259;126037;-75
2023/09/03 23:02:49;;;;;;;;;;;;;;;20.39;76.18;101349.88;668459;1264;125800;-76
2023/09/03 23:17:52;;;;;;;;;;;;;;;20.20;76.70;101359.95;668702;1260;126462;-75
2023/09/03 23:32:56;;;;;;;;;;;;;;;19.90;77.81;101362.45;668724;1263;125518;-75
2023/09/03 23:47:59;;;;;;;;;;;;;;;19.69;78.88;101359.38;668446;1263;125840;-75
